Time;durP1;ratioP1;P1;durP2;ratioP2;P2;SDS_P1;SDS_P2;PMS_P1;PMS_P2;Temp;Humidity;BMP_temperature;BMP_pressure;BME280_temperature;BME280_humidity;BME280_pressure;Samples;Min_cycle;Max_cycle;Signal;HPM_P1;HPM_P2
2023/09/29 00:01:38;;;;;;;33.88;22.42;;;15.20;99.90;;;;;;6213748;23;20020;-80
2023/09/29 00:04:07;;;;;;;30.17;23.13;;;15.20;99.90;;;;;;6240437;23;20023;-81
2023/09/29 00:06:33;;;;;;;37.78;34.03;;;15.20;99.90;;;;;;6188181;23;20012;-80
2023/09/29 00:09:00;;;;;;;37.50;32.35;;;15.10;99.90;;;;;;6213519;23;20012;-79
2023/09/29 00:11:26;;;;;;;36.00;28.60;;;14.90;99.90;;;;;;6213466;23;20096;-79
2023/09/29 00:13:52;;;;;;;34.67;22.67;;;15.20;99.90;;;;;;6238689;23;20099;-80
2023/09/29 00:16:17;;;;;;;28.88;17.85;;;15.20;99.90;;;;;;6212986;23;20105;-81
2023/09/29 00:18:43;;;;;;;27.77;22.60;;;15.20;99.90;;;;;;6239932;23;20012;-80
2023/09/29 00:21:09;;;;;;;31.48;23.23;;;15.20;99.90;;;;;;6240407;23;20012;-80
2023/09/29 00:23:35;;;;;;;25.08;18.77;;;15.20;99.90;;;;;;6213706;23;20015;-80
2023/09/29 00:26:01;;;;;;;32.95;24.13;;;15.20;99.90;;;;;;6240111;23;20048;-80
2023/09/29 00:28:27;;;;;;;34.78;26.88;;;15.20;99.90;;;;;;6238140;23;20039;-80
2023/09/29 00:30:53;;;;;;;38.05;30.65;;;15.20;99.90;;;;;;6238630;23;20016;-80
2023/09/29 00:33:20;;;;;;;29.25;23.55;;;15.20;99.90;;;;;;6212744;23;20399;-80
2023/09/29 00:35:46;;;;;;;34.30;30.35;;;15.50;99.90;;;;;;6212939;23;20342;-80
2023/09/29 00:38:11;;;;;;;30.90;23.25;;;15.20;99.90;;;;;;6213633;23;20022;-80
2023/09/29 00:40:37;;;;;;;26.90;18.05;;;15.20;99.90;;;;;;6240527;23;20135;-80
2023/09/29 00:43:03;;;;;;;28.90;20.25;;;15.20;99.90;;;;;;6213506;23;20390;-80
2023/09/29 00:45:29;;;;;;;37.60;30.75;;;15.20;99.90;;;;;;6211969;23;20019;-80
2023/09/29 00:47:58;;;;;;;29.48;26.40;;;15.30;99.90;;;;;;6213337;23;20024;-80
2023/09/29 00:50:29;;;;;;;31.75;26.08;;;15.20;99.90;;;;;;6213225;23;20051;-81
2023/09/29 00:53:05;;;;;;;34.03;25.05;;;15.30;99.90;;;;;;6238325;23;20098;-80
2023/09/29 00:55:32;;;;;;;31.45;19.55;;;15.20;99.90;;;;;;6213261;23;20028;-80
2023/09/29 00:57:59;;;;;;;31.48;21.50;;;15.30;99.90;;;;;;6239988;23;20016;-80
2023/09/29 01:02:53;;;;;;;28.80;23.30;;;15.20;99.90;;;;;;6213184;23;20018;-80
2023/09/29 01:05:19;;;;;;;33.83;17.23;;;15.20;99.90;;;;;;6212427;23;20119;-80
2023/09/29 01:07:46;;;;;;;25.58;21.30;;;15.20;99.90;;;;;;6213265;23;20079;-80
2023/09/29 01:10:13;;;;;;;36.80;32.90;;;15.20;99.90;;;;;;6187888;23;20044;-80
2023/09/29 01:12:43;;;;;;;34.22;30.20;;;15.20;99.90;;;;;;6212686;23;20048;-80
2023/09/29 01:15:15;;;;;;;41.08;24.50;;;15.20;99.90;;;;;;6211869;23;20016;-80
2023/09/29 01:17:42;;;;;;;36.63;32.93;;;15.20;99.90;;;;;;6238276;23;20055;-80
2023/09/29 01:20:16;;;;;;;34.88;31.48;;;15.10;99.90;;;;;;6213532;23;20066;-80
2023/09/29 01:22:48;;;;;;;31.40;23.60;;;15.10;99.90;;;;;;6239926;23;20008;-80
2023/09/29 01:25:17;;;;;;;28.02;20.58;;;15.10;99.90;;;;;;6212698;23;20054;-80
2023/09/29 01:27:43;;;;;;;27.83;18.90;;;15.10;99.90;;;;;;6213088;23;20016;-80
2023/09/29 01:30:13;;;;;;;30.30;27.05;;;15.10;99.90;;;;;;6212213;23;20039;-80
2023/09/29 01:32:40;;;;;;;27.58;21.80;;;15.10;99.90;;;;;;6212895;23;20012;-80
2023/09/29 01:35:06;;;;;;;28.63;17.85;;;15.10;99.90;;;;;;6212406;23;20227;-80
2023/09/29 01:37:33;;;;;;;30.38;27.02;;;15.00;99.90;;;;;;6213012;23;20386;-80
2023/09/29 01:39:59;;;;;;;28.38;25.25;;;15.10;99.90;;;;;;6188012;23;20020;-80
2023/09/29 01:42:24;;;;;;;32.53;23.92;;;15.10;99.90;;;;;;6212848;23;20142;-80
2023/09/29 01:44:51;;;;;;;35.65;26.73;;;15.10;99.90;;;;;;6237414;23;20016;-81
2023/09/29 01:47:17;;;;;;;34.53;31.15;;;15.10;99.90;;;;;;6212372;23;20008;-80
2023/09/29 01:49:43;;;;;;;31.42;26.17;;;15.10;99.90;;;;;;6212762;23;20011;-80
2023/09/29 01:52:08;;;;;;;36.83;33.22;;;15.10;99.90;;;;;;6212960;23;20012;-80
2023/09/29 01:54:35;;;;;;;26.52;17.02;;;15.30;99.90;;;;;;6213083;23;20020;-80
2023/09/29 01:57:01;;;;;;;33.70;26.85;;;15.10;99.90;;;;;;6237950;23;20489;-80
2023/09/29 01:59:28;;;;;;;30.70;25.77;;;15.10;99.90;;;;;;6212209;23;20008;-80
2023/09/29 02:01:54;;;;;;;37.10;33.00;;;15.20;99.90;;;;;;6212931;23;20331;-80
2023/09/29 02:04:20;;;;;;;28.02;22.95;;;15.20;99.90;;;;;;6237834;23;20447;-81
2023/09/29 02:06:46;;;;;;;31.30;25.38;;;15.20;99.90;;;;;;6212103;23;20253;-80
2023/09/29 02:09:11;;;;;;;29.33;22.73;;;15.20;99.90;;;;;;6213037;23;20012;-80
2023/09/29 02:11:41;;;;;;;27.48;23.75;;;15.20;99.90;;;;;;6213092;23;20232;-80
2023/09/29 02:14:06;;;;;;;28.75;25.50;;;15.20;99.90;;;;;;6237526;23;20024;-80
2023/09/29 02:16:35;;;;;;;25.15;16.42;;;15.20;99.90;;;;;;6212256;23;20110;-80
2023/09/29 02:19:02;;;;;;;33.63;30.42;;;15.30;99.90;;;;;;6237966;23;20099;-80
2023/09/29 02:21:31;;;;;;;28.98;16.65;;;15.30;99.90;;;;;;6237808;23;20020;-80
2023/09/29 02:24:00;;;;;;;25.83;22.50;;;15.60;99.90;;;;;;6212687;23;20024;-80
2023/09/29 02:26:29;;;;;;;37.88;34.08;;;15.30;99.90;;;;;;6212305;23;20012;-80
2023/09/29 02:28:55;;;;;;;28.42;20.65;;;15.30;99.90;;;;;;6212333;23;20008;-80
2023/09/29 02:31:22;;;;;;;31.45;27.42;;;15.30;99.90;;;;;;6212465;23;20024;-80
2023/09/29 02:33:47;;;;;;;24.77;14.63;;;15.60;99.90;;;;;;6212555;23;20251;-80
2023/09/29 02:36:13;;;;;;;30.70;27.70;;;15.40;99.90;;;;;;6212179;23;20019;-80
2023/09/29 02:38:38;;;;;;;29.83;17.58;;;15.40;99.90;;;;;;6212628;23;20030;-80
2023/09/29 02:41:07;;;;;;;34.15;30.35;;;15.40;99.90;;;;;;6238057;23;20091;-80
2023/09/29 02:43:32;;;;;;;29.80;20.08;;;15.40;99.90;;;;;;6237572;23;20016;-80
2023/09/29 02:45:58;;;;;;;25.58;16.85;;;15.50;99.90;;;;;;6212022;23;20020;-80
2023/09/29 02:48:24;;;;;;;21.98;14.95;;;15.40;99.90;;;;;;6212642;23;20057;-80
2023/09/29 02:50:50;;;;;;;22.88;16.38;;;15.50;99.90;;;;;;6212413;23;20083;-80
2023/09/29 02:53:16;;;;;;;33.10;24.27;;;15.40;99.90;;;;;;6214000;23;20012;-80
2023/09/29 02:55:45;;;;;;;24.00;17.33;;;15.40;99.90;;;;;;6214144;23;20074;-81
2023/09/29 02:58:12;;;;;;;30.05;26.65;;;15.40;99.90;;;;;;6240651;23;20038;-80
2023/09/29 03:00:39;;;;;;;26.17;21.67;;;15.40;99.90;;;;;;6214381;23;20020;-80
2023/09/29 03:03:06;;;;;;;26.13;17.88;;;15.40;99.90;;;;;;6214638;23;20447;-80
2023/09/29 03:05:35;;;;;;;24.98;17.75;;;15.40;99.90;;;;;;6214300;23;20023;-80
2023/09/29 03:08:01;;;;;;;28.38;22.50;;;15.40;99.90;;;;;;6215061;23;20175;-80
2023/09/29 03:10:28;;;;;;;24.63;13.77;;;15.40;99.90;;;;;;6214047;23;20013;-80
2023/09/29 03:12:56;;;;;;;29.45;14.48;;;15.40;99.90;;;;;;6242028;23;20004;-80
2023/09/29 03:15:23;;;;;;;26.67;18.20;;;15.50;99.90;;;;;;6213620;23;20034;-80
2023/09/29 03:17:49;;;;;;;26.33;18.73;;;15.50;99.90;;;;;;6214292;23;20086;-80
2023/09/29 03:20:15;;;;;;;30.23;13.95;;;15.50;99.90;;;;;;6214379;23;20070;-80
2023/09/29 03:22:44;;;;;;;26.17;20.60;;;15.50;99.90;;;;;;6214340;23;20087;-80
2023/09/29 03:25:10;;;;;;;28.05;22.70;;;15.50;99.90;;;;;;6213020;23;20036;-80
2023/09/29 03:27:36;;;;;;;30.73;27.15;;;15.60;99.90;;;;;;6214315;23;20012;-80
2023/09/29 03:30:07;;;;;;;23.60;17.20;;;15.50;99.90;;;;;;6214577;23;20050;-80
2023/09/29 03:32:33;;;;;;;21.83;12.07;;;15.60;99.90;;;;;;6214328;23;20012;-80
2023/09/29 03:34:59;;;;;;;24.17;15.50;;;15.60;99.90;;;;;;6188462;23;20016;-80
2023/09/29 03:37:27;;;;;;;28.48;25.50;;;15.60;99.90;;;;;;6214112;23;20016;-80
2023/09/29 03:39:53;;;;;;;23.05;12.05;;;15.60;99.90;;;;;;6238838;23;20016;-80
2023/09/29 03:42:22;;;;;;;24.20;20.23;;;15.60;99.90;;;;;;6213837;23;20454;-80
2023/09/29 03:44:47;;;;;;;29.58;17.10;;;15.60;99.90;;;;;;6238956;23;20431;-80
2023/09/29 03:47:14;;;;;;;30.65;15.43;;;15.60;99.90;;;;;;6214240;23;20008;-80
2023/09/29 03:49:43;;;;;;;22.50;13.93;;;15.60;99.90;;;;;;6188707;23;20053;-80
2023/09/29 03:52:08;;;;;;;27.80;16.10;;;15.70;99.90;;;;;;6213894;23;20052;-81
2023/09/29 03:54:34;;;;;;;18.67;14.65;;;15.70;99.90;;;;;;6240476;23;20021;-80
2023/09/29 03:57:10;;;;;;;21.88;15.65;;;15.70;99.90;;;;;;6240609;23;20016;-81
2023/09/29 03:59:36;;;;;;;27.70;24.92;;;15.70;99.90;;;;;;6213938;23;20014;-80
2023/09/29 04:02:02;;;;;;;21.38;14.18;;;15.70;99.90;;;;;;6214228;23;20012;-79
2023/09/29 04:04:28;;;;;;;31.27;17.45;;;15.80;99.90;;;;;;6189004;23;20520;-80
2023/09/29 04:06:53;;;;;;;26.95;17.20;;;15.70;99.90;;;;;;6240098;23;20008;-80
2023/09/29 04:09:20;;;;;;;24.58;16.05;;;15.60;99.90;;;;;;6213288;23;20039;-80
2023/09/29 04:11:46;;;;;;;32.83;19.20;;;15.90;99.90;;;;;;6214098;23;20012;-81
2023/09/29 04:14:11;;;;;;;21.38;10.98;;;15.80;99.90;;;;;;6238825;23;20449;-80
2023/09/29 04:16:37;;;;;;;18.85;14.07;;;15.90;99.90;;;;;;6238231;23;20463;-81
2023/09/29 04:19:09;;;;;;;25.35;18.42;;;15.90;99.90;;;;;;6242239;23;20020;-80
2023/09/29 04:21:34;;;;;;;24.00;16.27;;;15.90;99.90;;;;;;6217030;23;20211;-81
2023/09/29 04:24:00;;;;;;;26.25;16.00;;;15.90;99.90;;;;;;6239406;23;20606;-80
2023/09/29 04:26:26;;;;;;;26.65;15.00;;;16.00;99.90;;;;;;6214667;23;20030;-80
2023/09/29 04:28:51;;;;;;;24.13;15.05;;;15.90;99.90;;;;;;6214729;23;20068;-80
2023/09/29 04:31:18;;;;;;;28.83;17.30;;;16.00;99.90;;;;;;6214847;23;20015;-80
2023/09/29 04:33:44;;;;;;;26.90;23.05;;;16.00;99.90;;;;;;6240198;23;20046;-80
2023/09/29 04:36:11;;;;;;;32.03;18.48;;;16.00;99.90;;;;;;6189619;23;20016;-81
2023/09/29 04:38:37;;;;;;;25.65;20.90;;;16.10;99.90;;;;;;6214331;23;20019;-81
2023/09/29 04:41:04;;;;;;;30.17;16.17;;;16.10;99.90;;;;;;6214551;23;20047;-80
2023/09/29 04:43:30;;;;;;;28.13;18.70;;;16.10;99.90;;;;;;6214455;23;20020;-81
2023/09/29 04:45:56;;;;;;;27.65;24.95;;;16.10;99.90;;;;;;6241430;23;20491;-80
2023/09/29 04:48:22;;;;;;;21.95;14.55;;;16.10;99.90;;;;;;6213037;23;20044;-80
2023/09/29 04:50:48;;;;;;;25.80;15.93;;;16.10;99.90;;;;;;6239622;23;20099;-80
2023/09/29 04:53:14;;;;;;;28.80;21.20;;;16.10;99.90;;;;;;6240640;23;20015;-80
2023/09/29 04:55:39;;;;;;;25.90;15.75;;;16.10;99.90;;;;;;6241334;23;20027;-80
2023/09/29 04:58:05;;;;;;;26.10;20.10;;;16.20;99.90;;;;;;6214364;23;20343;-80
2023/09/29 05:00:31;;;;;;;28.92;25.98;;;16.30;99.90;;;;;;6214184;23;20518;-80
2023/09/29 05:02:56;;;;;;;22.63;16.13;;;16.20;99.90;;;;;;6214149;23;20016;-80
2023/09/29 05:05:22;;;;;;;24.10;15.43;;;16.20;99.90;;;;;;6213289;23;20012;-82
2023/09/29 05:07:48;;;;;;;24.90;18.30;;;16.20;99.90;;;;;;6213247;23;20020;-82
2023/09/29 05:10:13;;;;;;;24.45;20.60;;;16.20;99.90;;;;;;6213890;23;20455;-80
2023/09/29 05:12:41;;;;;;;33.35;21.10;;;16.30;99.90;;;;;;6213610;23;20241;-80
2023/09/29 05:15:08;;;;;;;22.30;14.20;;;16.30;99.90;;;;;;6213149;23;20016;-81
2023/09/29 05:17:34;;;;;;;21.75;17.38;;;16.10;99.90;;;;;;6241029;23;20039;-81
2023/09/29 05:20:00;;;;;;;26.02;15.27;;;16.30;99.90;;;;;;6213669;23;20022;-81
2023/09/29 05:22:26;;;;;;;26.55;17.67;;;16.30;99.90;;;;;;6212803;23;20082;-81
2023/09/29 05:24:53;;;;;;;20.83;15.82;;;16.30;99.90;;;;;;6210939;23;20016;-82
2023/09/29 05:27:20;;;;;;;22.85;18.13;;;16.30;99.90;;;;;;6212746;23;20129;-81
2023/09/29 05:29:45;;;;;;;32.72;24.52;;;16.30;99.90;;;;;;6213153;23;20055;-81
2023/09/29 05:32:11;;;;;;;22.65;14.88;;;16.40;99.90;;;;;;6214967;23;20344;-83
2023/09/29 05:34:37;;;;;;;27.30;23.23;;;16.50;99.90;;;;;;6218613;23;20077;-82
2023/09/29 05:37:02;;;;;;;22.02;15.98;;;16.40;99.90;;;;;;6194667;23;20020;-84
2023/09/29 05:39:28;;;;;;;22.88;15.90;;;16.40;99.90;;;;;;6196576;23;20047;-82
2023/09/29 05:41:54;;;;;;;21.30;16.73;;;16.40;99.90;;;;;;6216942;23;20370;-84
2023/09/29 05:44:20;;;;;;;26.20;19.42;;;16.50;99.90;;;;;;6191846;23;20412;-83
2023/09/29 05:46:46;;;;;;;22.75;16.08;;;16.50;99.90;;;;;;6221394;23;20012;-84
2023/09/29 05:49:11;;;;;;;30.10;18.02;;;16.50;99.90;;;;;;6193742;23;20066;-83
2023/09/29 05:51:37;;;;;;;19.58;15.30;;;16.50;99.90;;;;;;6243367;23;20020;-83
2023/09/29 05:54:03;;;;;;;22.55;14.73;;;16.50;99.90;;;;;;6191897;23;20016;-82
2023/09/29 05:56:32;;;;;;;21.73;15.25;;;16.50;99.90;;;;;;6214850;23;20020;-82
2023/09/29 05:58:59;;;;;;;27.50;24.17;;;16.50;99.90;;;;;;6189786;23;20023;-82
2023/09/29 06:01:25;;;;;;;25.33;16.85;;;16.40;99.90;;;;;;6189665;23;20059;-81
2023/09/29 06:03:54;;;;;;;24.95;21.33;;;16.40;99.90;;;;;;6189580;23;20027;-82
2023/09/29 06:06:20;;;;;;;26.27;14.70;;;16.40;99.90;;;;;;6214824;23;20012;-82
2023/09/29 06:08:46;;;;;;;18.70;13.23;;;16.40;99.90;;;;;;6190488;23;20096;-81
2023/09/29 06:11:12;;;;;;;30.73;18.15;;;16.30;99.90;;;;;;6241636;23;20012;-82
2023/09/29 06:13:38;;;;;;;23.13;20.58;;;16.30;99.90;;;;;;6189639;23;20645;-81
2023/09/29 06:16:04;;;;;;;21.23;17.08;;;16.30;99.90;;;;;;6214648;23;20044;-81
2023/09/29 06:18:30;;;;;;;20.83;18.65;;;16.30;99.90;;;;;;6239050;23;20016;-81
2023/09/29 06:20:56;;;;;;;20.92;14.07;;;16.30;99.90;;;;;;6213109;23;20019;-82
2023/09/29 06:23:21;;;;;;;21.60;16.08;;;16.30;99.90;;;;;;6189724;23;20334;-81
2023/09/29 06:25:55;;;;;;;17.83;14.35;;;16.30;99.90;;;;;;6238607;23;20016;-81
2023/09/29 06:28:20;;;;;;;;;;;16.40;99.90;;;;;;6214853;23;20070;-81
2023/09/29 06:30:46;;;;;;;21.15;18.05;;;16.40;99.90;;;;;;6189441;23;20408;-81
2023/09/29 06:33:12;;;;;;;20.98;13.68;;;16.40;99.90;;;;;;6214449;23;20696;-81
2023/09/29 06:35:39;;;;;;;23.42;21.08;;;16.40;99.90;;;;;;6239920;23;20012;-82
2023/09/29 06:38:05;;;;;;;24.40;21.98;;;16.40;99.90;;;;;;6215257;23;20343;-81
2023/09/29 06:40:30;;;;;;;23.00;16.00;;;16.50;99.90;;;;;;6188830;23;20018;-79
2023/09/29 06:42:56;;;;;;;27.45;18.95;;;16.40;99.90;;;;;;6187572;23;20446;-80
2023/09/29 06:45:22;;;;;;;21.77;16.52;;;16.50;99.90;;;;;;6212568;23;20146;-81
2023/09/29 06:47:48;;;;;;;20.42;14.57;;;16.40;99.90;;;;;;6237813;23;20100;-81
2023/09/29 06:50:13;;;;;;;20.63;14.70;;;16.40;99.90;;;;;;6237517;23;20016;-82
2023/09/29 06:52:40;;;;;;;19.48;14.43;;;16.40;99.90;;;;;;6214084;23;20015;-83
2023/09/29 06:55:06;;;;;;;17.95;13.32;;;16.40;99.90;;;;;;6219761;23;20016;-83
2023/09/29 06:57:32;;;;;;;25.60;21.88;;;16.40;99.90;;;;;;6192215;23;20047;-85
2023/09/29 06:59:57;;;;;;;18.80;13.80;;;16.20;99.90;;;;;;6193069;23;20016;-83
2023/09/29 07:02:23;;;;;;;24.65;19.15;;;16.50;99.90;;;;;;6190243;23;20016;-84
2023/09/29 07:04:49;;;;;;;20.88;13.98;;;16.50;99.90;;;;;;6188798;23;20071;-85
2023/09/29 07:07:15;;;;;;;22.02;19.98;;;16.60;99.90;;;;;;6192908;23;20012;-85
2023/09/29 07:09:41;;;;;;;17.33;13.10;;;16.70;99.90;;;;;;6192214;23;20017;-84
2023/09/29 07:12:07;;;;;;;19.55;17.65;;;16.70;99.90;;;;;;6190128;23;20008;-84
2023/09/29 07:14:33;;;;;;;13.45;11.30;;;16.80;99.90;;;;;;6216987;23;20023;-84
2023/09/29 07:16:58;;;;;;;22.75;17.88;;;16.90;99.90;;;;;;6213212;23;20466;-84
2023/09/29 07:19:24;;;;;;;17.70;11.95;;;17.00;99.90;;;;;;6210071;23;20009;-84
2023/09/29 07:21:50;;;;;;;17.75;10.20;;;17.10;99.90;;;;;;6235720;23;20016;-84
2023/09/29 07:24:16;;;;;;;14.50;11.73;;;17.20;99.90;;;;;;6188055;23;20051;-84
2023/09/29 07:26:42;;;;;;;22.50;14.77;;;17.30;99.90;;;;;;6211652;23;20013;-84
2023/09/29 07:29:08;;;;;;;16.98;11.90;;;17.30;99.90;;;;;;6210227;23;20012;-83
2023/09/29 07:31:34;;;;;;;15.77;11.93;;;17.40;99.90;;;;;;6208705;23;20016;-82
2023/09/29 07:34:01;;;;;;;15.27;11.68;;;17.40;99.90;;;;;;6208168;23;20021;-82
2023/09/29 07:36:29;;;;;;;17.15;11.55;;;17.50;99.90;;;;;;6209094;23;20016;-82
2023/09/29 07:38:54;;;;;;;16.35;11.75;;;17.60;99.90;;;;;;6213656;23;20020;-84
2023/09/29 07:41:20;;;;;;;14.85;9.68;;;17.60;99.90;;;;;;6192065;23;20031;-84
2023/09/29 07:43:46;;;;;;;14.52;10.85;;;17.60;99.90;;;;;;6217290;23;20012;-85
2023/09/29 07:46:12;;;;;;;15.93;10.80;;;17.70;99.90;;;;;;6211639;23;20016;-80
2023/09/29 07:48:38;;;;;;;17.38;11.15;;;17.80;99.90;;;;;;6209847;23;20012;-82
2023/09/29 07:51:04;;;;;;;17.55;11.40;;;17.90;99.90;;;;;;6211592;23;20077;-83
2023/09/29 07:53:30;;;;;;;13.88;11.55;;;18.10;99.90;;;;;;6210819;23;20425;-83
2023/09/29 07:55:55;;;;;;;12.75;9.48;;;18.10;99.90;;;;;;6237491;23;20016;-82
2023/09/29 07:58:21;;;;;;;15.73;11.88;;;18.30;99.90;;;;;;6213113;23;20020;-80
2023/09/29 08:00:47;;;;;;;13.13;11.82;;;18.30;99.90;;;;;;6209498;23;20407;-83
2023/09/29 08:03:12;;;;;;;12.73;11.43;;;18.30;99.90;;;;;;6210224;23;20024;-82
2023/09/29 08:05:38;;;;;;;15.57;11.48;;;18.40;99.90;;;;;;6209767;23;20024;-81
2023/09/29 08:08:05;;;;;;;13.27;11.88;;;18.50;99.90;;;;;;6209630;23;20012;-81
2023/09/29 08:10:32;;;;;;;16.58;12.10;;;18.60;99.90;;;;;;6209707;23;20340;-81
2023/09/29 08:12:57;;;;;;;12.68;11.50;;;18.60;99.90;;;;;;6209547;23;20423;-81
2023/09/29 08:15:24;;;;;;;15.68;14.13;;;18.60;99.90;;;;;;6213132;23;20024;-80
2023/09/29 08:17:50;;;;;;;15.25;11.77;;;18.80;99.90;;;;;;6190076;23;20012;-80
2023/09/29 08:20:18;;;;;;;14.90;13.50;;;18.80;99.90;;;;;;6214417;23;20012;-80
2023/09/29 08:22:44;;;;;;;13.65;12.27;;;19.00;99.90;;;;;;6214813;23;20020;-81
2023/09/29 08:25:10;;;;;;;13.27;11.95;;;19.10;99.90;;;;;;6214623;23;20117;-80
2023/09/29 08:27:37;;;;;;;15.15;12.27;;;19.30;99.90;;;;;;6214107;23;20066;-80
2023/09/29 08:30:04;;;;;;;14.07;12.77;;;19.50;99.90;;;;;;6240428;23;20035;-79
2023/09/29 08:32:30;;;;;;;15.15;13.18;;;19.60;99.90;;;;;;6214225;23;20015;-78
2023/09/29 08:34:56;;;;;;;12.75;11.45;;;19.50;99.90;;;;;;6214504;23;20438;-80
2023/09/29 08:37:22;;;;;;;13.32;11.73;;;19.60;99.90;;;;;;6239804;23;20016;-80
2023/09/29 08:39:49;;;;;;;15.52;14.05;;;19.60;99.90;;;;;;6239151;23;20051;-80
2023/09/29 08:42:44;;;;;;;13.88;11.32;;;19.70;99.90;;;;;;6214044;23;20016;-80
2023/09/29 08:45:14;;;;;;;12.20;11.20;;;19.80;99.90;;;;;;6213527;23;20028;-80
2023/09/29 08:47:40;;;;;;;13.13;11.75;;;19.90;99.90;;;;;;6214058;23;20066;-81
2023/09/29 08:50:11;;;;;;;12.30;11.02;;;20.00;99.90;;;;;;6214405;23;20339;-83
2023/09/29 08:52:38;;;;;;;12.85;11.48;;;20.00;99.90;;;;;;6190155;23;20019;-81
2023/09/29 08:55:04;;;;;;;12.95;11.65;;;20.10;99.90;;;;;;6215107;23;20016;-82
2023/09/29 08:57:31;;;;;;;12.05;11.00;;;20.10;99.90;;;;;;6191616;23;20008;-82
2023/09/29 08:59:58;;;;;;;13.07;11.77;;;20.20;99.90;;;;;;6215026;23;20035;-82
2023/09/29 09:02:24;;;;;;;13.73;11.30;;;20.20;99.90;;;;;;6214663;23;20012;-82
2023/09/29 09:04:50;;;;;;;13.43;12.23;;;20.40;99.90;;;;;;6242701;23;20020;-82
2023/09/29 09:07:17;;;;;;;13.68;12.32;;;20.40;99.90;;;;;;6216464;23;20008;-82
2023/09/29 09:09:53;;;;;;;14.70;11.75;;;20.50;99.90;;;;;;6215293;23;20147;-81
2023/09/29 09:12:33;;;;;;;13.55;12.27;;;20.60;99.90;;;;;;6214999;23;20016;-81
2023/09/29 09:14:58;;;;;;;13.77;12.23;;;20.70;99.90;;;;;;6214068;23;20361;-81
2023/09/29 09:17:25;;;;;;;13.02;11.75;;;20.70;99.90;;;;;;6241908;23;20051;-83
2023/09/29 09:19:51;;;;;;;12.77;11.52;;;20.80;99.90;;;;;;6241945;23;20335;-83
2023/09/29 09:22:21;;;;;;;13.32;12.32;;;20.90;99.90;;;;;;6191052;23;20039;-83
2023/09/29 09:24:48;;;;;;;14.95;13.57;;;20.90;99.90;;;;;;6241041;23;20052;-81
2023/09/29 09:27:14;;;;;;;15.57;14.10;;;20.90;99.90;;;;;;6215055;23;20585;-83
2023/09/29 09:29:43;;;;;;;14.85;13.55;;;21.00;99.90;;;;;;6241194;23;20040;-82
2023/09/29 09:32:12;;;;;;;16.25;13.85;;;21.10;99.90;;;;;;6216242;23;20066;-81
2023/09/29 09:34:39;;;;;;;15.05;13.85;;;21.10;99.90;;;;;;6241355;23;20451;-85
2023/09/29 09:37:06;;;;;;;11.73;10.63;;;21.20;99.90;;;;;;6189649;23;20016;-81
2023/09/29 09:39:33;;;;;;;15.70;13.98;;;21.20;99.90;;;;;;6241961;23;20079;-82
2023/09/29 09:42:01;;;;;;;13.93;12.63;;;21.30;99.90;;;;;;6216299;23;20019;-82
2023/09/29 09:44:27;;;;;;;35.13;12.85;;;21.50;99.90;;;;;;6215251;23;20062;-82
2023/09/29 09:47:00;;;;;;;11.95;10.82;;;21.50;99.90;;;;;;6215105;23;20008;-83
2023/09/29 09:49:36;;;;;;;16.55;12.88;;;21.60;99.90;;;;;;6215911;23;20438;-82
2023/09/29 09:52:12;;;;;;;14.70;13.30;;;21.70;99.90;;;;;;6214587;23;20517;-81
2023/09/29 09:54:44;;;;;;;13.40;12.23;;;21.70;99.90;;;;;;6214735;23;20024;-82
2023/09/29 09:57:11;;;;;;;16.13;14.85;;;21.90;99.90;;;;;;6240530;23;20027;-82
2023/09/29 09:59:39;;;;;;;12.50;11.30;;;22.00;99.90;;;;;;6217369;23;20019;-82
2023/09/29 10:02:07;;;;;;;12.48;11.23;;;22.10;99.90;;;;;;6191308;23;20051;-82
2023/09/29 10:04:38;;;;;;;14.02;12.70;;;22.10;99.90;;;;;;6192684;23;20031;-82
2023/09/29 10:07:05;;;;;;;13.13;11.75;;;22.20;99.90;;;;;;6214217;23;20058;-81
2023/09/29 10:10:00;;;;;;;14.93;13.73;;;22.20;99.90;;;;;;6213699;23;20016;-83
2023/09/29 10:12:31;;;;;;;16.20;14.75;;;22.40;99.90;;;;;;6219593;23;20020;-79
2023/09/29 10:14:58;;;;;;;15.18;13.63;;;22.40;99.90;;;;;;6213333;23;20016;-80
2023/09/29 10:17:37;;;;;;;16.05;14.55;;;22.30;99.90;;;;;;6213317;23;20020;-81
2023/09/29 10:20:04;;;;;;;16.05;14.73;;;22.20;99.90;;;;;;6239075;23;20073;-81
2023/09/29 10:22:30;;;;;;;17.10;15.57;;;22.20;99.90;;;;;;6213826;23;20042;-82
2023/09/29 10:24:59;;;;;;;14.68;12.80;;;22.20;99.90;;;;;;6213571;23;20039;-81
2023/09/29 10:27:33;;;;;;;17.48;16.02;;;22.30;99.90;;;;;;6187425;23;20016;-80
2023/09/29 10:30:25;;;;;;;14.35;12.98;;;22.30;99.90;;;;;;6188449;23;20090;-80
2023/09/29 10:33:06;;;;;;;18.25;16.70;;;22.20;99.90;;;;;;6188341;23;20012;-80
2023/09/29 10:35:33;;;;;;;16.20;14.77;;;22.10;99.90;;;;;;6212991;23;20048;-80
2023/09/29 10:38:11;;;;;;;17.73;16.33;;;22.10;99.90;;;;;;6212952;23;20020;-81
2023/09/29 10:40:37;;;;;;;16.70;15.50;;;22.00;99.90;;;;;;6212875;23;20012;-80
2023/09/29 10:43:04;;;;;;;17.15;15.77;;;22.00;99.90;;;;;;6213181;23;20104;-80
2023/09/29 10:45:36;;;;;;;13.82;12.30;;;22.00;99.90;;;;;;6212706;23;20013;-80
2023/09/29 10:48:06;;;;;;;16.58;15.10;;;22.00;99.90;;;;;;6240030;23;20008;-80
2023/09/29 10:50:43;;;;;;;14.95;13.63;;;22.00;99.90;;;;;;6213173;23;20355;-80
2023/09/29 10:53:10;;;;;;;16.52;15.15;;;21.90;99.90;;;;;;6212809;23;20086;-81
2023/09/29 10:55:47;;;;;;;18.98;17.38;;;21.80;99.90;;;;;;6212367;23;20020;-84
2023/09/29 10:58:14;;;;;;;16.73;15.52;;;21.80;99.90;;;;;;6238744;23;20400;-86
2023/09/29 11:00:48;;;;;;;16.98;15.40;;;21.80;99.90;;;;;;6188193;23;20012;-85
2023/09/29 11:03:15;;;;;;;18.40;17.00;;;21.80;99.90;;;;;;6213084;23;20016;-84
2023/09/29 11:05:58;;;;;;;18.25;16.60;;;21.80;99.90;;;;;;6238537;23;20039;-85
2023/09/29 11:08:33;;;;;;;18.58;16.92;;;21.70;99.90;;;;;;6212620;23;20019;-85
2023/09/29 11:11:03;;;;;;;18.23;16.75;;;21.60;99.90;;;;;;6211861;23;20075;-86
2023/09/29 11:13:30;;;;;;;18.38;16.67;;;21.60;99.90;;;;;;6189001;23;20427;-85
2023/09/29 11:15:56;;;;;;;16.80;15.18;;;21.60;99.90;;;;;;6197711;23;20020;-86
2023/09/29 11:18:31;;;;;;;16.73;15.27;;;21.60;99.90;;;;;;6214976;23;20020;-85
2023/09/29 11:20:58;;;;;;;18.10;16.50;;;21.50;99.90;;;;;;6214852;23;20012;-85
2023/09/29 11:23:24;;;;;;;19.02;17.50;;;21.40;99.90;;;;;;6214499;23;20016;-85
2023/09/29 11:25:54;;;;;;;18.15;16.67;;;21.40;99.90;;;;;;6189402;23;20088;-84
2023/09/29 11:28:20;;;;;;;17.63;16.13;;;21.40;99.90;;;;;;6189705;23;20091;-83
2023/09/29 11:30:47;;;;;;;18.90;15.02;;;21.30;99.90;;;;;;6189286;23;20083;-84
2023/09/29 11:33:13;;;;;;;19.15;17.35;;;21.30;99.90;;;;;;6214137;23;20044;-85
2023/09/29 11:35:45;;;;;;;18.13;16.35;;;21.30;99.90;;;;;;6213227;23;20012;-84
2023/09/29 11:38:16;;;;;;;18.40;16.80;;;21.30;99.90;;;;;;6188256;23;20016;-84
2023/09/29 11:40:42;;;;;;;19.27;17.08;;;21.20;99.90;;;;;;6241330;23;20008;-83
2023/09/29 11:43:08;;;;;;;17.30;15.52;;;21.20;99.90;;;;;;6239355;23;20342;-83
2023/09/29 11:45:33;;;;;;;18.00;16.30;;;21.10;99.90;;;;;;6213973;23;20016;-83
2023/09/29 11:47:59;;;;;;;16.25;14.95;;;21.10;99.90;;;;;;6214413;23;20441;-82
2023/09/29 11:50:25;;;;;;;16.52;14.98;;;21.00;99.90;;;;;;6214740;23;20023;-82
2023/09/29 11:52:51;;;;;;;18.35;16.50;;;21.00;99.90;;;;;;6213989;23;20043;-82
2023/09/29 11:55:17;;;;;;;16.27;14.77;;;20.90;99.90;;;;;;6213918;23;20484;-82
2023/09/29 11:57:42;;;;;;;15.80;14.60;;;20.80;99.90;;;;;;6214596;23;20019;-82
2023/09/29 12:00:13;;;;;;;15.73;14.30;;;20.80;99.90;;;;;;6214637;23;20558;-82
2023/09/29 12:02:40;;;;;;;16.58;14.52;;;20.70;99.90;;;;;;6214035;23;20019;-82
2023/09/29 12:05:07;;;;;;;16.63;15.05;;;20.70;99.90;;;;;;6214056;23;20027;-81
2023/09/29 12:07:33;;;;;;;16.70;15.18;;;20.60;99.90;;;;;;6188376;23;20016;-82
2023/09/29 12:09:59;;;;;;;17.65;13.07;;;20.60;99.90;;;;;;6214466;23;20018;-82
2023/09/29 12:12:26;;;;;;;16.20;14.60;;;20.60;99.90;;;;;;6214822;23;20019;-82
2023/09/29 12:14:52;;;;;;;15.15;13.50;;;20.70;99.90;;;;;;6241717;23;20027;-82
2023/09/29 12:17:19;;;;;;;16.42;14.75;;;20.90;99.90;;;;;;6214433;23;20626;-81
2023/09/29 12:19:45;;;;;;;12.43;11.30;;;21.00;99.90;;;;;;6214485;23;20012;-82
2023/09/29 12:22:11;;;;;;;17.20;13.70;;;21.10;99.90;;;;;;6213400;23;20023;-81
2023/09/29 12:24:40;;;;;;;15.70;14.23;;;21.20;99.90;;;;;;6214088;23;20016;-81
2023/09/29 12:27:08;;;;;;;16.20;14.63;;;21.30;99.90;;;;;;6214430;23;20405;-82
2023/09/29 12:29:34;;;;;;;14.45;13.15;;;21.40;99.90;;;;;;6213320;23;20014;-84
2023/09/29 12:32:00;;;;;;;14.40;13.00;;;21.50;99.90;;;;;;6214910;23;20019;-84